sensor_id;sensor_type;location;lat;lon;timestamp;P1;durP1;ratioP1;P2;durP2;ratioP2
15929;SDS011;8064;51.142;4.780;2022-08-21T00:02:00;5.40;;;2.30;;
15929;SDS011;8064;51.142;4.780;2022-08-21T00:04:26;5.07;;;2.67;;
15929;SDS011;8064;51.142;4.780;2022-08-21T00:06:52;3.87;;;2.50;;
15929;SDS011;8064;51.142;4.780;2022-08-21T00:09:18;3.70;;;2.43;;
15929;SDS011;8064;51.142;4.780;2022-08-21T00:11:45;4.67;;;2.50;;
15929;SDS011;8064;51.142;4.780;2022-08-21T00:14:11;3.30;;;2.67;;
15929;SDS011;8064;51.142;4.780;2022-08-21T00:16:38;4.97;;;2.30;;
15929;SDS011;8064;51.142;4.780;2022-08-21T00:19:04;4.27;;;2.20;;
15929;SDS011;8064;51.142;4.780;2022-08-21T00:21:31;8.03;;;2.20;;
15929;SDS011;8064;51.142;4.780;2022-08-21T00:23:58;4.30;;;2.73;;
15929;SDS011;8064;51.142;4.780;2022-08-21T00:26:24;6.17;;;2.63;;
15929;SDS011;8064;51.142;4.780;2022-08-21T00:28:51;4.50;;;2.33;;
15929;SDS011;8064;51.142;4.780;2022-08-21T00:31:17;2.97;;;2.40;;
15929;SDS011;8064;51.142;4.780;2022-08-21T00:33:43;4.50;;;2.50;;
15929;SDS011;8064;51.142;4.780;2022-08-21T00:36:10;3.87;;;2.30;;
15929;SDS011;8064;51.142;4.780;2022-08-21T00:38:37;6.03;;;2.27;;
15929;SDS011;8064;51.142;4.780;2022-08-21T00:41:03;5.13;;;2.60;;
15929;SDS011;8064;51.142;4.780;2022-08-21T00:43:32;3.43;;;2.10;;
15929;SDS011;8064;51.142;4.780;2022-08-21T00:45:59;3.77;;;2.30;;
15929;SDS011;8064;51.142;4.780;2022-08-21T00:48:26;6.30;;;2.40;;
15929;SDS011;8064;51.142;4.780;2022-08-21T00:50:53;2.80;;;2.50;;
15929;SDS011;8064;51.142;4.780;2022-08-21T00:53:23;3.97;;;2.30;;
15929;SDS011;8064;51.142;4.780;2022-08-21T00:55:50;4.90;;;2.33;;
15929;SDS011;8064;51.142;4.780;2022-08-21T00:58:16;3.37;;;2.30;;
15929;SDS011;8064;51.142;4.780;2022-08-21T01:00:44;5.93;;;2.73;;
15929;SDS011;8064;51.142;4.780;2022-08-21T01:03:13;5.50;;;2.50;;
15929;SDS011;8064;51.142;4.780;2022-08-21T01:05:42;4.80;;;2.37;;
15929;SDS011;8064;51.142;4.780;2022-08-21T01:08:08;3.47;;;2.20;;
15929;SDS011;8064;51.142;4.780;2022-08-21T01:10:35;2.57;;;1.97;;
15929;SDS011;8064;51.142;4.780;2022-08-21T01:13:03;6.17;;;2.23;;
15929;SDS011;8064;51.142;4.780;2022-08-21T01:15:32;2.53;;;2.03;;
15929;SDS011;8064;51.142;4.780;2022-08-21T01:18:01;5.33;;;2.53;;
15929;SDS011;8064;51.142;4.780;2022-08-21T01:20:29;4.10;;;1.93;;
15929;SDS011;8064;51.142;4.780;2022-08-21T01:22:55;4.17;;;2.30;;
15929;SDS011;8064;51.142;4.780;2022-08-21T01:25:21;6.40;;;2.60;;
15929;SDS011;8064;51.142;4.780;2022-08-21T01:27:47;3.13;;;2.37;;
15929;SDS011;8064;51.142;4.780;2022-08-21T01:30:16;5.80;;;2.20;;
15929;SDS011;8064;51.142;4.780;2022-08-21T01:32:45;6.30;;;2.27;;
15929;SDS011;8064;51.142;4.780;2022-08-21T01:35:13;3.03;;;2.10;;
15929;SDS011;8064;51.142;4.780;2022-08-21T01:37:40;2.60;;;1.90;;
15929;SDS011;8064;51.142;4.780;2022-08-21T01:40:07;4.80;;;2.37;;
15929;SDS011;8064;51.142;4.780;2022-08-21T01:42:34;3.63;;;2.23;;
15929;SDS011;8064;51.142;4.780;2022-08-21T01:45:00;3.40;;;2.03;;
15929;SDS011;8064;51.142;4.780;2022-08-21T01:47:26;3.33;;;2.33;;
15929;SDS011;8064;51.142;4.780;2022-08-21T01:49:52;5.43;;;2.37;;
15929;SDS011;8064;51.142;4.780;2022-08-21T01:52:18;4.30;;;2.20;;
15929;SDS011;8064;51.142;4.780;2022-08-21T01:54:44;3.47;;;2.10;;
15929;SDS011;8064;51.142;4.780;2022-08-21T01:57:10;5.67;;;2.37;;
15929;SDS011;8064;51.142;4.780;2022-08-21T01:59:37;2.93;;;1.90;;
15929;SDS011;8064;51.142;4.780;2022-08-21T02:02:03;5.63;;;2.47;;
15929;SDS011;8064;51.142;4.780;2022-08-21T02:04:29;4.63;;;2.27;;
15929;SDS011;8064;51.142;4.780;2022-08-21T02:06:55;4.40;;;2.27;;
15929;SDS011;8064;51.142;4.780;2022-08-21T02:09:21;3.77;;;2.00;;
15929;SDS011;8064;51.142;4.780;2022-08-21T02:11:47;2.60;;;1.77;;
15929;SDS011;8064;51.142;4.780;2022-08-21T02:14:13;4.07;;;2.10;;
15929;SDS011;8064;51.142;4.780;2022-08-21T02:16:40;5.27;;;2.50;;
15929;SDS011;8064;51.142;4.780;2022-08-21T02:19:08;4.03;;;2.17;;
15929;SDS011;8064;51.142;4.780;2022-08-21T02:21:34;4.83;;;2.53;;
15929;SDS011;8064;51.142;4.780;2022-08-21T02:24:00;4.33;;;2.40;;
15929;SDS011;8064;51.142;4.780;2022-08-21T02:26:26;3.13;;;1.97;;
15929;SDS011;8064;51.142;4.780;2022-08-21T02:28:52;2.70;;;1.97;;
15929;SDS011;8064;51.142;4.780;2022-08-21T02:31:18;5.63;;;2.67;;
15929;SDS011;8064;51.142;4.780;2022-08-21T02:33:44;5.73;;;2.40;;
15929;SDS011;8064;51.142;4.780;2022-08-21T02:36:10;4.90;;;2.17;;
15929;SDS011;8064;51.142;4.780;2022-08-21T02:38:37;8.77;;;2.60;;
15929;SDS011;8064;51.142;4.780;2022-08-21T02:41:06;5.00;;;2.33;;
15929;SDS011;8064;51.142;4.780;2022-08-21T02:43:33;6.57;;;2.37;;
15929;SDS011;8064;51.142;4.780;2022-08-21T02:45:59;6.03;;;2.27;;
15929;SDS011;8064;51.142;4.780;2022-08-21T02:48:27;6.80;;;1.87;;
15929;SDS011;8064;51.142;4.780;2022-08-21T02:50:56;5.93;;;2.10;;
15929;SDS011;8064;51.142;4.780;2022-08-21T02:53:24;9.87;;;2.63;;
15929;SDS011;8064;51.142;4.780;2022-08-21T02:55:51;4.60;;;2.20;;
15929;SDS011;8064;51.142;4.780;2022-08-21T02:58:20;4.87;;;2.30;;
15929;SDS011;8064;51.142;4.780;2022-08-21T03:00:48;3.63;;;2.37;;
15929;SDS011;8064;51.142;4.780;2022-08-21T03:03:14;4.23;;;1.90;;
15929;SDS011;8064;51.142;4.780;2022-08-21T03:05:40;7.93;;;2.10;;
15929;SDS011;8064;51.142;4.780;2022-08-21T03:08:09;3.93;;;2.10;;
15929;SDS011;8064;51.142;4.780;2022-08-21T03:10:37;3.37;;;1.97;;
15929;SDS011;8064;51.142;4.780;2022-08-21T03:13:04;4.93;;;1.90;;
15929;SDS011;8064;51.142;4.780;2022-08-21T03:15:31;5.47;;;2.50;;
15929;SDS011;8064;51.142;4.780;2022-08-21T03:17:56;3.03;;;2.00;;
15929;SDS011;8064;51.142;4.780;2022-08-21T03:20:23;3.83;;;1.93;;
15929;SDS011;8064;51.142;4.780;2022-08-21T03:22:51;4.03;;;1.93;;
15929;SDS011;8064;51.142;4.780;2022-08-21T03:25:17;6.33;;;1.97;;
15929;SDS011;8064;51.142;4.780;2022-08-21T03:27:44;6.80;;;2.93;;
15929;SDS011;8064;51.142;4.780;2022-08-21T03:30:10;6.53;;;2.40;;
15929;SDS011;8064;51.142;4.780;2022-08-21T03:32:36;4.53;;;2.37;;
15929;SDS011;8064;51.142;4.780;2022-08-21T03:35:03;6.27;;;2.17;;
15929;SDS011;8064;51.142;4.780;2022-08-21T03:37:29;2.97;;;2.20;;
15929;SDS011;8064;51.142;4.780;2022-08-21T03:39:55;5.37;;;2.13;;
15929;SDS011;8064;51.142;4.780;2022-08-21T03:42:21;4.87;;;2.00;;
15929;SDS011;8064;51.142;4.780;2022-08-21T03:44:48;5.53;;;2.20;;
15929;SDS011;8064;51.142;4.780;2022-08-21T03:47:14;5.33;;;2.60;;
15929;SDS011;8064;51.142;4.780;2022-08-21T03:49:40;5.53;;;2.20;;
15929;SDS011;8064;51.142;4.780;2022-08-21T03:52:06;4.40;;;2.63;;
15929;SDS011;8064;51.142;4.780;2022-08-21T03:54:32;11.30;;;2.90;;
15929;SDS011;8064;51.142;4.780;2022-08-21T03:56:58;9.33;;;4.10;;
15929;SDS011;8064;51.142;4.780;2022-08-21T03:59:24;13.37;;;7.10;;
15929;SDS011;8064;51.142;4.780;2022-08-21T04:01:52;13.03;;;8.17;;
15929;SDS011;8064;51.142;4.780;2022-08-21T04:04:19;9.57;;;6.13;;
15929;SDS011;8064;51.142;4.780;2022-08-21T04:06:45;9.37;;;5.40;;
15929;SDS011;8064;51.142;4.780;2022-08-21T04:09:11;8.50;;;5.20;;
15929;SDS011;8064;51.142;4.780;2022-08-21T04:11:37;7.33;;;5.37;;
15929;SDS011;8064;51.142;4.780;2022-08-21T04:14:02;11.63;;;6.57;;
15929;SDS011;8064;51.142;4.780;2022-08-21T04:16:29;12.40;;;7.23;;
15929;SDS011;8064;51.142;4.780;2022-08-21T04:18:56;13.83;;;6.97;;
15929;SDS011;8064;51.142;4.780;2022-08-21T04:21:21;9.43;;;6.80;;
15929;SDS011;8064;51.142;4.780;2022-08-21T04:23:48;15.77;;;10.33;;
15929;SDS011;8064;51.142;4.780;2022-08-21T04:26:14;34.87;;;23.87;;
15929;SDS011;8064;51.142;4.780;2022-08-21T04:28:40;30.23;;;22.37;;
15929;SDS011;8064;51.142;4.780;2022-08-21T04:31:06;61.50;;;39.33;;
15929;SDS011;8064;51.142;4.780;2022-08-21T04:33:33;47.77;;;28.70;;
15929;SDS011;8064;51.142;4.780;2022-08-21T04:35:59;19.77;;;13.03;;
15929;SDS011;8064;51.142;4.780;2022-08-21T04:38:26;6.57;;;3.90;;
15929;SDS011;8064;51.142;4.780;2022-08-21T04:40:52;3.47;;;2.53;;
15929;SDS011;8064;51.142;4.780;2022-08-21T04:43:19;5.23;;;2.97;;
15929;SDS011;8064;51.142;4.780;2022-08-21T04:45:47;5.40;;;2.63;;
15929;SDS011;8064;51.142;4.780;2022-08-21T04:48:16;8.10;;;4.53;;
15929;SDS011;8064;51.142;4.780;2022-08-21T04:50:47;18.60;;;12.50;;
15929;SDS011;8064;51.142;4.780;2022-08-21T04:53:16;8.60;;;3.87;;
15929;SDS011;8064;51.142;4.780;2022-08-21T04:55:45;6.93;;;3.27;;
15929;SDS011;8064;51.142;4.780;2022-08-21T04:58:13;7.33;;;3.23;;
15929;SDS011;8064;51.142;4.780;2022-08-21T05:00:42;13.33;;;6.17;;
15929;SDS011;8064;51.142;4.780;2022-08-21T05:03:10;8.87;;;3.93;;
15929;SDS011;8064;51.142;4.780;2022-08-21T05:05:36;6.90;;;2.80;;
15929;SDS011;8064;51.142;4.780;2022-08-21T05:08:03;6.80;;;2.67;;
15929;SDS011;8064;51.142;4.780;2022-08-21T05:10:32;4.73;;;2.30;;
15929;SDS011;8064;51.142;4.780;2022-08-21T05:12:58;7.73;;;2.40;;
15929;SDS011;8064;51.142;4.780;2022-08-21T05:15:25;4.97;;;2.50;;
15929;SDS011;8064;51.142;4.780;2022-08-21T05:17:51;6.03;;;2.33;;
15929;SDS011;8064;51.142;4.780;2022-08-21T05:20:17;5.13;;;2.30;;
15929;SDS011;8064;51.142;4.780;2022-08-21T05:22:44;4.63;;;2.03;;
15929;SDS011;8064;51.142;4.780;2022-08-21T05:25:11;5.70;;;2.30;;
15929;SDS011;8064;51.142;4.780;2022-08-21T05:27:37;7.43;;;2.30;;
15929;SDS011;8064;51.142;4.780;2022-08-21T05:30:04;7.07;;;2.93;;
15929;SDS011;8064;51.142;4.780;2022-08-21T05:32:32;4.80;;;2.23;;
15929;SDS011;8064;51.142;4.780;2022-08-21T05:34:58;3.73;;;2.40;;
15929;SDS011;8064;51.142;4.780;2022-08-21T05:37:24;8.57;;;2.60;;
15929;SDS011;8064;51.142;4.780;2022-08-21T05:39:50;5.60;;;2.77;;
15929;SDS011;8064;51.142;4.780;2022-08-21T05:42:16;5.70;;;2.40;;
15929;SDS011;8064;51.142;4.780;2022-08-21T05:44:42;7.47;;;2.40;;
15929;SDS011;8064;51.142;4.780;2022-08-21T05:47:08;4.93;;;2.53;;
15929;SDS011;8064;51.142;4.780;2022-08-21T05:49:35;9.37;;;2.77;;
15929;SDS011;8064;51.142;4.780;2022-08-21T05:52:02;3.90;;;2.50;;
15929;SDS011;8064;51.142;4.780;2022-08-21T05:54:29;3.33;;;2.13;;
15929;SDS011;8064;51.142;4.780;2022-08-21T05:56:55;3.90;;;2.17;;
15929;SDS011;8064;51.142;4.780;2022-08-21T05:59:21;6.67;;;2.37;;
15929;SDS011;8064;51.142;4.780;2022-08-21T06:01:48;7.93;;;2.40;;
15929;SDS011;8064;51.142;4.780;2022-08-21T06:04:14;8.80;;;2.80;;
15929;SDS011;8064;51.142;4.780;2022-08-21T06:06:41;8.10;;;3.63;;
15929;SDS011;8064;51.142;4.780;2022-08-21T06:09:07;6.87;;;2.93;;
15929;SDS011;8064;51.142;4.780;2022-08-21T06:11:32;5.50;;;2.60;;
15929;SDS011;8064;51.142;4.780;2022-08-21T06:13:59;6.30;;;2.90;;
15929;SDS011;8064;51.142;4.780;2022-08-21T06:16:27;8.37;;;3.10;;
15929;SDS011;8064;51.142;4.780;2022-08-21T06:18:53;6.47;;;2.87;;
15929;SDS011;8064;51.142;4.780;2022-08-21T06:21:18;12.53;;;3.17;;
15929;SDS011;8064;51.142;4.780;2022-08-21T06:23:44;7.27;;;3.13;;
15929;SDS011;8064;51.142;4.780;2022-08-21T06:26:11;4.47;;;2.47;;
15929;SDS011;8064;51.142;4.780;2022-08-21T06:28:38;6.20;;;2.47;;
15929;SDS011;8064;51.142;4.780;2022-08-21T06:31:17;5.53;;;2.70;;
15929;SDS011;8064;51.142;4.780;2022-08-21T06:33:44;7.70;;;2.70;;
15929;SDS011;8064;51.142;4.780;2022-08-21T06:36:11;6.90;;;2.60;;
15929;SDS011;8064;51.142;4.780;2022-08-21T06:38:37;6.63;;;2.50;;
15929;SDS011;8064;51.142;4.780;2022-08-21T06:41:03;6.07;;;2.80;;
15929;SDS011;8064;51.142;4.780;2022-08-21T06:43:29;5.87;;;2.27;;
15929;SDS011;8064;51.142;4.780;2022-08-21T06:45:56;4.20;;;2.00;;
15929;SDS011;8064;51.142;4.780;2022-08-21T06:48:21;3.60;;;1.93;;
15929;SDS011;8064;51.142;4.780;2022-08-21T06:50:48;7.67;;;2.10;;
15929;SDS011;8064;51.142;4.780;2022-08-21T06:53:15;7.80;;;2.00;;
15929;SDS011;8064;51.142;4.780;2022-08-21T06:55:43;4.37;;;1.60;;
15929;SDS011;8064;51.142;4.780;2022-08-21T06:58:09;4.37;;;1.50;;
15929;SDS011;8064;51.142;4.780;2022-08-21T07:00:38;5.43;;;2.20;;
15929;SDS011;8064;51.142;4.780;2022-08-21T07:03:05;7.00;;;1.83;;
15929;SDS011;8064;51.142;4.780;2022-08-21T07:05:31;10.10;;;1.90;;
15929;SDS011;8064;51.142;4.780;2022-08-21T07:07:56;5.27;;;1.80;;
15929;SDS011;8064;51.142;4.780;2022-08-21T07:10:23;4.17;;;1.97;;
15929;SDS011;8064;51.142;4.780;2022-08-21T07:12:50;9.63;;;2.07;;
15929;SDS011;8064;51.142;4.780;2022-08-21T07:15:17;5.17;;;2.17;;
15929;SDS011;8064;51.142;4.780;2022-08-21T07:17:43;7.20;;;1.67;;
15929;SDS011;8064;51.142;4.780;2022-08-21T07:20:09;5.65;;;2.20;;
15929;SDS011;8064;51.142;4.780;2022-08-21T07:22:36;8.63;;;2.13;;
15929;SDS011;8064;51.142;4.780;2022-08-21T07:25:04;4.97;;;2.00;;
15929;SDS011;8064;51.142;4.780;2022-08-21T07:27:31;7.47;;;1.90;;
15929;SDS011;8064;51.142;4.780;2022-08-21T07:29:57;6.80;;;2.17;;
15929;SDS011;8064;51.142;4.780;2022-08-21T07:32:23;6.43;;;1.92;;
15929;SDS011;8064;51.142;4.780;2022-08-21T07:34:49;5.97;;;1.88;;
15929;SDS011;8064;51.142;4.780;2022-08-21T07:37:15;6.05;;;2.05;;
15929;SDS011;8064;51.142;4.780;2022-08-21T07:39:41;10.68;;;2.13;;
15929;SDS011;8064;51.142;4.780;2022-08-21T07:42:07;7.53;;;1.90;;
15929;SDS011;8064;51.142;4.780;2022-08-21T07:44:33;5.40;;;1.50;;
15929;SDS011;8064;51.142;4.780;2022-08-21T07:47:00;4.93;;;1.80;;
15929;SDS011;8064;51.142;4.780;2022-08-21T07:49:26;10.23;;;2.25;;
15929;SDS011;8064;51.142;4.780;2022-08-21T07:51:52;5.10;;;2.10;;
15929;SDS011;8064;51.142;4.780;2022-08-21T07:54:18;9.75;;;2.58;;
15929;SDS011;8064;51.142;4.780;2022-08-21T07:56:44;10.00;;;2.13;;
15929;SDS011;8064;51.142;4.780;2022-08-21T07:59:10;6.75;;;2.35;;
15929;SDS011;8064;51.142;4.780;2022-08-21T08:01:37;6.63;;;1.63;;
15929;SDS011;8064;51.142;4.780;2022-08-21T08:04:03;6.53;;;2.00;;
15929;SDS011;8064;51.142;4.780;2022-08-21T08:06:29;8.15;;;2.28;;
15929;SDS011;8064;51.142;4.780;2022-08-21T08:08:55;7.78;;;1.85;;
15929;SDS011;8064;51.142;4.780;2022-08-21T08:11:23;5.90;;;1.50;;
15929;SDS011;8064;51.142;4.780;2022-08-21T08:13:50;7.07;;;1.77;;
15929;SDS011;8064;51.142;4.780;2022-08-21T08:16:18;7.13;;;1.77;;
15929;SDS011;8064;51.142;4.780;2022-08-21T08:18:44;7.25;;;2.08;;
15929;SDS011;8064;51.142;4.780;2022-08-21T08:21:11;6.53;;;1.60;;
15929;SDS011;8064;51.142;4.780;2022-08-21T08:23:38;10.63;;;2.30;;
15929;SDS011;8064;51.142;4.780;2022-08-21T08:26:04;6.28;;;1.80;;
15929;SDS011;8064;51.142;4.780;2022-08-21T08:28:31;10.10;;;1.85;;
15929;SDS011;8064;51.142;4.780;2022-08-21T08:30:59;7.47;;;2.30;;
15929;SDS011;8064;51.142;4.780;2022-08-21T08:33:26;4.93;;;1.85;;
15929;SDS011;8064;51.142;4.780;2022-08-21T08:35:53;5.85;;;1.42;;
15929;SDS011;8064;51.142;4.780;2022-08-21T08:38:20;4.05;;;1.60;;
15929;SDS011;8064;51.142;4.780;2022-08-21T08:43:37;4.47;;;1.30;;
15929;SDS011;8064;51.142;4.780;2022-08-21T08:46:04;6.20;;;1.92;;
15929;SDS011;8064;51.142;4.780;2022-08-21T08:51:19;7.85;;;2.03;;
15929;SDS011;8064;51.142;4.780;2022-08-21T08:53:52;4.88;;;1.40;;
15929;SDS011;8064;51.142;4.780;2022-08-21T08:56:28;4.68;;;1.40;;
15929;SDS011;8064;51.142;4.780;2022-08-21T08:58:57;3.80;;;1.08;;
15929;SDS011;8064;51.142;4.780;2022-08-21T09:01:27;6.93;;;1.52;;
15929;SDS011;8064;51.142;4.780;2022-08-21T09:03:53;9.90;;;1.73;;
15929;SDS011;8064;51.142;4.780;2022-08-21T09:06:22;6.55;;;1.75;;
15929;SDS011;8064;51.142;4.780;2022-08-21T09:09:06;8.02;;;1.63;;
15929;SDS011;8064;51.142;4.780;2022-08-21T09:26:00;4.68;;;1.33;;
15929;SDS011;8064;51.142;4.780;2022-08-21T09:28:33;4.20;;;1.13;;
15929;SDS011;8064;51.142;4.780;2022-08-21T09:31:01;4.18;;;1.00;;
15929;SDS011;8064;51.142;4.780;2022-08-21T09:33:31;4.28;;;1.13;;
15929;SDS011;8064;51.142;4.780;2022-08-21T09:35:56;4.75;;;1.08;;
15929;SDS011;8064;51.142;4.780;2022-08-21T09:38:24;7.13;;;1.77;;
15929;SDS011;8064;51.142;4.780;2022-08-21T09:40:56;3.97;;;1.00;;
15929;SDS011;8064;51.142;4.780;2022-08-21T09:43:25;5.55;;;1.42;;
15929;SDS011;8064;51.142;4.780;2022-08-21T09:46:05;7.43;;;1.30;;
15929;SDS011;8064;51.142;4.780;2022-08-21T09:48:51;4.75;;;1.15;;
15929;SDS011;8064;51.142;4.780;2022-08-21T09:51:22;4.47;;;1.08;;
15929;SDS011;8064;51.142;4.780;2022-08-21T09:53:54;7.57;;;1.98;;
15929;SDS011;8064;51.142;4.780;2022-08-21T09:56:34;5.03;;;1.38;;
15929;SDS011;8064;51.142;4.780;2022-08-21T09:59:33;4.60;;;1.35;;
15929;SDS011;8064;51.142;4.780;2022-08-21T10:02:00;6.65;;;1.63;;
15929;SDS011;8064;51.142;4.780;2022-08-21T10:04:30;5.30;;;1.40;;
15929;SDS011;8064;51.142;4.780;2022-08-21T10:09:44;8.82;;;1.50;;
15929;SDS011;8064;51.142;4.780;2022-08-21T10:18:02;5.95;;;1.50;;
15929;SDS011;8064;51.142;4.780;2022-08-21T10:20:50;4.70;;;1.17;;
15929;SDS011;8064;51.142;4.780;2022-08-21T10:26:53;5.03;;;1.52;;
15929;SDS011;8064;51.142;4.780;2022-08-21T10:35:23;9.55;;;1.35;;
15929;SDS011;8064;51.142;4.780;2022-08-21T10:52:52;5.63;;;2.03;;
15929;SDS011;8064;51.142;4.780;2022-08-21T10:55:22;4.03;;;1.85;;
15929;SDS011;8064;51.142;4.780;2022-08-21T11:00:46;5.88;;;1.73;;
15929;SDS011;8064;51.142;4.780;2022-08-21T11:03:17;4.45;;;1.35;;
15929;SDS011;8064;51.142;4.780;2022-08-21T11:05:51;5.35;;;1.65;;
15929;SDS011;8064;51.142;4.780;2022-08-21T11:11:36;4.35;;;1.45;;
15929;SDS011;8064;51.142;4.780;2022-08-21T11:17:12;5.80;;;1.80;;
15929;SDS011;8064;51.142;4.780;2022-08-21T11:22:33;6.25;;;1.65;;
15929;SDS011;8064;51.142;4.780;2022-08-21T11:28:08;4.40;;;1.48;;
15929;SDS011;8064;51.142;4.780;2022-08-21T11:36:22;10.20;;;1.92;;
15929;SDS011;8064;51.142;4.780;2022-08-21T11:39:26;7.13;;;1.70;;
15929;SDS011;8064;51.142;4.780;2022-08-21T11:50:16;6.82;;;1.52;;
15929;SDS011;8064;51.142;4.780;2022-08-21T11:52:48;7.18;;;1.92;;
15929;SDS011;8064;51.142;4.780;2022-08-21T11:58:02;3.92;;;1.23;;
15929;SDS011;8064;51.142;4.780;2022-08-21T12:00:33;4.25;;;1.35;;
15929;SDS011;8064;51.142;4.780;2022-08-21T12:06:06;4.90;;;1.38;;
15929;SDS011;8064;51.142;4.780;2022-08-21T12:08:35;5.68;;;1.73;;
15929;SDS011;8064;51.142;4.780;2022-08-21T12:11:06;5.70;;;1.40;;
15929;SDS011;8064;51.142;4.780;2022-08-21T12:21:50;6.63;;;1.30;;
15929;SDS011;8064;51.142;4.780;2022-08-21T12:24:31;7.18;;;1.30;;
15929;SDS011;8064;51.142;4.780;2022-08-21T12:27:18;6.18;;;1.67;;
15929;SDS011;8064;51.142;4.780;2022-08-21T12:29:52;6.65;;;1.90;;
15929;SDS011;8064;51.142;4.780;2022-08-21T12:32:23;7.40;;;1.60;;
15929;SDS011;8064;51.142;4.780;2022-08-21T12:37:51;6.07;;;2.03;;
15929;SDS011;8064;51.142;4.780;2022-08-21T12:43:24;7.57;;;1.75;;
15929;SDS011;8064;51.142;4.780;2022-08-21T12:48:58;4.68;;;1.50;;
15929;SDS011;8064;51.142;4.780;2022-08-21T12:51:31;3.83;;;1.27;;
15929;SDS011;8064;51.142;4.780;2022-08-21T12:54:02;5.57;;;1.52;;
15929;SDS011;8064;51.142;4.780;2022-08-21T12:56:33;3.92;;;1.40;;
15929;SDS011;8064;51.142;4.780;2022-08-21T12:59:02;3.78;;;1.30;;
15929;SDS011;8064;51.142;4.780;2022-08-21T13:04:13;7.53;;;1.85;;
15929;SDS011;8064;51.142;4.780;2022-08-21T13:06:45;4.72;;;1.50;;
15929;SDS011;8064;51.142;4.780;2022-08-21T13:09:15;10.02;;;1.92;;
15929;SDS011;8064;51.142;4.780;2022-08-21T13:11:45;6.43;;;1.48;;
15929;SDS011;8064;51.142;4.780;2022-08-21T13:14:23;6.45;;;1.58;;
15929;SDS011;8064;51.142;4.780;2022-08-21T13:17:02;7.72;;;1.70;;
15929;SDS011;8064;51.142;4.780;2022-08-21T13:19:30;4.07;;;1.40;;
15929;SDS011;8064;51.142;4.780;2022-08-21T13:21:56;5.00;;;1.40;;
15929;SDS011;8064;51.142;4.780;2022-08-21T13:24:25;5.38;;;1.50;;
15929;SDS011;8064;51.142;4.780;2022-08-21T13:26:53;5.80;;;1.60;;
15929;SDS011;8064;51.142;4.780;2022-08-21T13:29:23;8.50;;;1.67;;
15929;SDS011;8064;51.142;4.780;2022-08-21T13:31:55;6.25;;;1.65;;
15929;SDS011;8064;51.142;4.780;2022-08-21T13:34:37;4.20;;;1.90;;
15929;SDS011;8064;51.142;4.780;2022-08-21T13:37:04;4.93;;;1.60;;
15929;SDS011;8064;51.142;4.780;2022-08-21T13:39:34;6.03;;;2.08;;
15929;SDS011;8064;51.142;4.780;2022-08-21T13:42:01;6.00;;;1.50;;
15929;SDS011;8064;51.142;4.780;2022-08-21T13:47:00;5.63;;;1.73;;
15929;SDS011;8064;51.142;4.780;2022-08-21T13:49:30;6.35;;;1.63;;
15929;SDS011;8064;51.142;4.780;2022-08-21T13:51:59;7.15;;;1.60;;
15929;SDS011;8064;51.142;4.780;2022-08-21T13:54:27;5.65;;;1.80;;
15929;SDS011;8064;51.142;4.780;2022-08-21T13:57:14;5.82;;;1.38;;
15929;SDS011;8064;51.142;4.780;2022-08-21T13:59:42;6.40;;;1.60;;
15929;SDS011;8064;51.142;4.780;2022-08-21T14:02:11;5.85;;;1.45;;
15929;SDS011;8064;51.142;4.780;2022-08-21T14:04:39;9.52;;;1.70;;
15929;SDS011;8064;51.142;4.780;2022-08-21T14:07:15;10.98;;;1.67;;
15929;SDS011;8064;51.142;4.780;2022-08-21T14:09:43;6.20;;;1.50;;
15929;SDS011;8064;51.142;4.780;2022-08-21T14:15:15;6.80;;;2.15;;
15929;SDS011;8064;51.142;4.780;2022-08-21T14:17:43;4.65;;;1.50;;
15929;SDS011;8064;51.142;4.780;2022-08-21T14:20:11;7.22;;;1.58;;
15929;SDS011;8064;51.142;4.780;2022-08-21T14:22:52;5.25;;;1.90;;
15929;SDS011;8064;51.142;4.780;2022-08-21T14:30:54;7.00;;;1.83;;
15929;SDS011;8064;51.142;4.780;2022-08-21T14:33:26;7.00;;;1.55;;
15929;SDS011;8064;51.142;4.780;2022-08-21T14:35:54;4.55;;;1.67;;
15929;SDS011;8064;51.142;4.780;2022-08-21T14:38:20;8.15;;;2.47;;
15929;SDS011;8064;51.142;4.780;2022-08-21T14:40:50;5.15;;;1.33;;
15929;SDS011;8064;51.142;4.780;2022-08-21T14:43:19;4.80;;;1.30;;
15929;SDS011;8064;51.142;4.780;2022-08-21T14:45:45;5.40;;;1.42;;
15929;SDS011;8064;51.142;4.780;2022-08-21T14:48:12;4.90;;;1.33;;
15929;SDS011;8064;51.142;4.780;2022-08-21T14:50:38;8.60;;;1.80;;
15929;SDS011;8064;51.142;4.780;2022-08-21T14:53:05;5.38;;;1.73;;
15929;SDS011;8064;51.142;4.780;2022-08-21T14:55:31;7.57;;;1.90;;
15929;SDS011;8064;51.142;4.780;2022-08-21T14:58:13;4.03;;;1.25;;
15929;SDS011;8064;51.142;4.780;2022-08-21T15:00:39;5.32;;;1.60;;
15929;SDS011;8064;51.142;4.780;2022-08-21T15:03:04;7.28;;;1.83;;
15929;SDS011;8064;51.142;4.780;2022-08-21T15:05:30;3.65;;;1.38;;
15929;SDS011;8064;51.142;4.780;2022-08-21T15:07:56;7.35;;;2.08;;
15929;SDS011;8064;51.142;4.780;2022-08-21T15:10:21;5.40;;;1.38;;
15929;SDS011;8064;51.142;4.780;2022-08-21T15:12:48;5.88;;;1.42;;
15929;SDS011;8064;51.142;4.780;2022-08-21T15:15:14;4.88;;;1.70;;
15929;SDS011;8064;51.142;4.780;2022-08-21T15:17:40;5.82;;;1.88;;
15929;SDS011;8064;51.142;4.780;2022-08-21T15:20:06;7.15;;;2.13;;
15929;SDS011;8064;51.142;4.780;2022-08-21T15:22:34;7.05;;;1.60;;
15929;SDS011;8064;51.142;4.780;2022-08-21T15:25:00;5.78;;;1.73;;
15929;SDS011;8064;51.142;4.780;2022-08-21T15:27:26;6.20;;;2.22;;
15929;SDS011;8064;51.142;4.780;2022-08-21T15:29:53;9.82;;;1.90;;
15929;SDS011;8064;51.142;4.780;2022-08-21T15:32:20;4.85;;;1.40;;
15929;SDS011;8064;51.142;4.780;2022-08-21T15:34:49;6.45;;;1.75;;
15929;SDS011;8064;51.142;4.780;2022-08-21T15:37:16;5.65;;;1.70;;
15929;SDS011;8064;51.142;4.780;2022-08-21T15:39:42;5.85;;;1.80;;
15929;SDS011;8064;51.142;4.780;2022-08-21T15:42:08;6.00;;;1.80;;
15929;SDS011;8064;51.142;4.780;2022-08-21T15:44:35;6.45;;;1.40;;
15929;SDS011;8064;51.142;4.780;2022-08-21T15:47:02;7.07;;;1.92;;
15929;SDS011;8064;51.142;4.780;2022-08-21T15:49:37;4.68;;;1.63;;
15929;SDS011;8064;51.142;4.780;2022-08-21T15:52:03;4.97;;;1.80;;
15929;SDS011;8064;51.142;4.780;2022-08-21T15:54:29;6.70;;;1.60;;
15929;SDS011;8064;51.142;4.780;2022-08-21T15:56:55;6.07;;;1.60;;
15929;SDS011;8064;51.142;4.780;2022-08-21T15:59:21;5.95;;;1.88;;
15929;SDS011;8064;51.142;4.780;2022-08-21T16:01:49;10.70;;;2.33;;
15929;SDS011;8064;51.142;4.780;2022-08-21T16:04:18;6.78;;;1.73;;
15929;SDS011;8064;51.142;4.780;2022-08-21T16:06:47;4.97;;;1.67;;
15929;SDS011;8064;51.142;4.780;2022-08-21T16:09:14;7.40;;;2.03;;
15929;SDS011;8064;51.142;4.780;2022-08-21T16:11:40;5.43;;;1.80;;
15929;SDS011;8064;51.142;4.780;2022-08-21T16:14:07;8.50;;;2.00;;
15929;SDS011;8064;51.142;4.780;2022-08-21T16:16:33;4.13;;;1.58;;
15929;SDS011;8064;51.142;4.780;2022-08-21T16:19:00;4.65;;;1.48;;
15929;SDS011;8064;51.142;4.780;2022-08-21T16:21:28;6.15;;;1.65;;
15929;SDS011;8064;51.142;4.780;2022-08-21T16:23:54;6.55;;;1.83;;
15929;SDS011;8064;51.142;4.780;2022-08-21T16:26:20;8.25;;;2.10;;
15929;SDS011;8064;51.142;4.780;2022-08-21T16:28:45;8.40;;;2.30;;
15929;SDS011;8064;51.142;4.780;2022-08-21T16:31:13;7.25;;;1.92;;
15929;SDS011;8064;51.142;4.780;2022-08-21T16:33:41;5.60;;;1.40;;
15929;SDS011;8064;51.142;4.780;2022-08-21T16:36:10;9.50;;;1.92;;
15929;SDS011;8064;51.142;4.780;2022-08-21T16:38:37;3.97;;;1.60;;
15929;SDS011;8064;51.142;4.780;2022-08-21T16:41:06;4.70;;;1.40;;
15929;SDS011;8064;51.142;4.780;2022-08-21T16:43:35;6.35;;;1.98;;
15929;SDS011;8064;51.142;4.780;2022-08-21T16:46:03;5.50;;;1.75;;
15929;SDS011;8064;51.142;4.780;2022-08-21T16:48:29;4.25;;;1.50;;
15929;SDS011;8064;51.142;4.780;2022-08-21T16:50:55;6.47;;;1.88;;
15929;SDS011;8064;51.142;4.780;2022-08-21T16:53:22;4.90;;;1.75;;
15929;SDS011;8064;51.142;4.780;2022-08-21T16:55:49;8.77;;;2.08;;
15929;SDS011;8064;51.142;4.780;2022-08-21T16:58:18;7.00;;;1.98;;
15929;SDS011;8064;51.142;4.780;2022-08-21T17:00:49;7.10;;;1.85;;
15929;SDS011;8064;51.142;4.780;2022-08-21T17:03:16;6.13;;;1.90;;
15929;SDS011;8064;51.142;4.780;2022-08-21T17:05:45;5.95;;;1.83;;